createdAt,value
2023-06-04T00:01:16.383Z,63.30
2023-06-04T00:03:47.253Z,63.20
2023-06-04T00:06:15.795Z,63.60
2023-06-04T00:08:44.117Z,63.50
2023-06-04T00:11:12.424Z,62.60
2023-06-04T00:13:40.756Z,63.30
2023-06-04T00:16:09.273Z,63.40
2023-06-04T00:18:37.586Z,62.80
2023-06-04T00:21:07.941Z,62.00
2023-06-04T00:23:36.444Z,62.00
2023-06-04T00:26:06.053Z,61.50
2023-06-04T00:28:34.294Z,61.10
2023-06-04T00:31:02.785Z,60.90
2023-06-04T00:33:31.115Z,61.00
2023-06-04T00:35:59.510Z,61.20
2023-06-04T00:38:29.259Z,60.70
2023-06-04T00:40:57.752Z,60.90
2023-06-04T00:43:32.528Z,60.90
2023-06-04T00:46:03.601Z,60.90
2023-06-04T00:48:32.658Z,60.90
2023-06-04T00:51:01.610Z,61.20
2023-06-04T00:53:31.629Z,61.00
2023-06-04T00:55:59.898Z,61.00
2023-06-04T00:58:28.333Z,61.00
2023-06-04T01:01:00.402Z,60.90
2023-06-04T01:03:32.673Z,61.50
2023-06-04T01:06:12.807Z,61.00
2023-06-04T01:08:44.557Z,61.20
2023-06-04T01:11:12.915Z,61.30
2023-06-04T01:13:41.216Z,61.60
2023-06-04T01:16:11.155Z,61.40
2023-06-04T01:18:41.789Z,61.40
2023-06-04T01:21:13.761Z,61.60
2023-06-04T01:23:59.452Z,62.20
2023-06-04T01:26:30.090Z,61.80
2023-06-04T01:29:00.022Z,62.30
2023-06-04T01:31:29.662Z,62.90
2023-06-04T01:33:59.017Z,63.10
2023-06-04T01:36:27.958Z,62.60
2023-06-04T01:38:57.599Z,63.20
2023-06-04T01:41:26.318Z,63.20
2023-06-04T01:43:54.591Z,63.40
2023-06-04T01:46:23.364Z,63.60
2023-06-04T01:48:51.719Z,63.60
2023-06-04T01:51:20.030Z,63.60
2023-06-04T01:53:48.327Z,64.40
2023-06-04T01:56:17.961Z,64.80
2023-06-04T01:58:46.893Z,64.60
2023-06-04T02:01:18.087Z,64.90
2023-06-04T02:03:46.663Z,64.60
2023-06-04T02:06:14.981Z,64.80
2023-06-04T02:08:43.629Z,65.30
2023-06-04T02:11:12.084Z,65.30
2023-06-04T02:13:41.740Z,65.30
2023-06-04T02:16:10.111Z,65.90
2023-06-04T02:18:38.392Z,65.90
2023-06-04T02:21:07.388Z,65.70
2023-06-04T02:23:36.210Z,65.80
2023-06-04T02:26:04.665Z,66.70
2023-06-04T02:28:33.008Z,66.20
2023-06-04T02:31:02.642Z,66.10
2023-06-04T02:33:31.016Z,66.40
2023-06-04T02:35:59.436Z,66.20
2023-06-04T02:38:27.709Z,66.50
2023-06-04T02:40:55.980Z,66.60
2023-06-04T02:43:24.341Z,66.70
2023-06-04T02:45:52.710Z,66.90
2023-06-04T02:48:22.405Z,67.60
2023-06-04T02:50:50.656Z,67.60
2023-06-04T02:53:19.202Z,67.50
2023-06-04T02:55:47.410Z,67.80
2023-06-04T02:58:17.177Z,68.00
2023-06-04T03:00:45.497Z,67.90
2023-06-04T03:03:13.968Z,68.20
2023-06-04T03:05:44.076Z,68.60
2023-06-04T03:08:12.502Z,68.70
2023-06-04T03:10:40.976Z,69.20
2023-06-04T03:13:09.289Z,68.90
2023-06-04T03:15:40.328Z,69.70
2023-06-04T03:18:09.244Z,68.80
2023-06-04T03:20:39.461Z,69.00
2023-06-04T03:23:09.374Z,69.80
2023-06-04T03:25:37.855Z,69.80
2023-06-04T03:28:06.773Z,69.70
2023-06-04T03:30:35.065Z,70.40
2023-06-04T03:33:03.947Z,70.50
2023-06-04T03:35:32.278Z,69.70
2023-06-04T03:38:00.525Z,70.00
2023-06-04T03:40:30.207Z,70.50
2023-06-04T03:42:58.480Z,70.50
2023-06-04T03:45:26.952Z,71.10
2023-06-04T03:47:55.264Z,70.50
2023-06-04T03:50:23.784Z,70.70
2023-06-04T03:52:52.307Z,71.10
2023-06-04T03:55:20.693Z,70.40
2023-06-04T03:57:50.717Z,71.40
2023-06-04T04:00:19.426Z,71.30
2023-06-04T04:02:47.851Z,71.10
2023-06-04T04:05:17.345Z,71.20
2023-06-04T04:07:45.895Z,71.60
2023-06-04T04:10:14.137Z,71.40
2023-06-04T04:12:42.426Z,71.60
2023-06-04T04:15:12.754Z,71.40
2023-06-04T04:17:41.129Z,72.10
2023-06-04T04:20:10.065Z,71.20
2023-06-04T04:22:43.241Z,72.40
2023-06-04T04:25:12.068Z,72.60
2023-06-04T04:27:41.979Z,72.30
2023-06-04T04:30:15.392Z,72.20
2023-06-04T04:32:50.072Z,72.20
2023-06-04T04:35:19.492Z,71.50
2023-06-04T04:37:48.236Z,72.00
2023-06-04T04:40:16.582Z,71.70
2023-06-04T04:42:45.140Z,71.80
2023-06-04T04:45:14.869Z,71.40
2023-06-04T04:47:43.219Z,71.30
2023-06-04T04:50:12.591Z,71.00
2023-06-04T04:52:40.917Z,70.60
2023-06-04T04:55:10.740Z,70.60
2023-06-04T04:57:39.063Z,70.10
2023-06-04T05:00:10.277Z,70.10
2023-06-04T05:02:40.109Z,70.10
2023-06-04T05:05:09.432Z,69.90
2023-06-04T05:07:37.672Z,69.70
2023-06-04T05:10:06.932Z,69.60
2023-06-04T05:12:35.242Z,69.40
2023-06-04T05:15:04.261Z,69.20
2023-06-04T05:17:32.695Z,69.00
2023-06-04T05:20:04.664Z,69.00
2023-06-04T05:22:34.124Z,68.60
2023-06-04T05:25:02.429Z,68.20
2023-06-04T05:27:32.547Z,68.20
2023-06-04T05:30:02.385Z,68.20
2023-06-04T05:32:31.587Z,68.20
2023-06-04T05:35:05.626Z,68.30
2023-06-04T05:37:35.389Z,68.60
2023-06-04T05:40:06.622Z,67.90
2023-06-04T05:42:35.046Z,67.50
2023-06-04T05:45:03.685Z,67.80
2023-06-04T05:47:32.534Z,67.60
2023-06-04T05:50:02.641Z,67.40
2023-06-04T05:52:31.054Z,67.50
2023-06-04T05:54:59.304Z,67.10
2023-06-04T05:57:27.676Z,66.80
2023-06-04T05:59:55.972Z,66.80
2023-06-04T06:02:24.293Z,66.60
2023-06-04T06:04:52.598Z,66.40
2023-06-04T06:07:22.429Z,65.60
2023-06-04T06:09:50.720Z,65.80
2023-06-04T06:12:19.028Z,65.70
2023-06-04T06:14:47.252Z,65.70
2023-06-04T06:17:15.803Z,65.40
2023-06-04T06:19:44.246Z,65.10
2023-06-04T06:22:12.735Z,65.10
2023-06-04T06:24:42.631Z,64.80
2023-06-04T06:27:13.985Z,64.30
2023-06-04T06:29:42.964Z,63.40
2023-06-04T06:32:11.921Z,62.80
2023-06-04T06:34:40.242Z,62.30
2023-06-04T06:37:09.612Z,62.50
2023-06-04T06:39:37.906Z,62.50
2023-06-04T06:42:07.706Z,62.00
2023-06-04T06:44:36.237Z,61.70
2023-06-04T06:47:04.635Z,61.80
2023-06-04T06:49:33.176Z,61.80
2023-06-04T06:52:01.485Z,61.00
2023-06-04T06:54:29.741Z,60.00
2023-06-04T06:56:59.019Z,58.80
2023-06-04T06:59:29.317Z,58.80
2023-06-04T07:01:57.659Z,58.40
2023-06-04T07:04:26.467Z,58.10
2023-06-04T07:06:54.718Z,58.10
2023-06-04T07:09:22.924Z,57.80
2023-06-04T07:11:51.205Z,56.80
2023-06-04T07:14:19.531Z,57.00
2023-06-04T07:16:49.216Z,55.60
2023-06-04T07:19:17.483Z,55.60
2023-06-04T07:21:45.873Z,55.40
2023-06-04T07:24:14.170Z,54.80
2023-06-04T07:26:42.630Z,55.30
2023-06-04T07:29:11.019Z,55.60
2023-06-04T07:31:39.287Z,54.40
2023-06-04T07:34:08.980Z,54.00
2023-06-04T07:36:37.730Z,53.40
2023-06-04T07:39:06.637Z,53.70
2023-06-04T07:41:35.106Z,53.20
2023-06-04T07:44:03.386Z,52.50
2023-06-04T07:46:32.989Z,52.60
2023-06-04T07:49:01.367Z,52.40
2023-06-04T07:51:31.007Z,51.50
2023-06-04T07:53:59.447Z,51.80
2023-06-04T07:56:27.859Z,51.50
2023-06-04T07:58:56.393Z,50.40
2023-06-04T08:01:25.008Z,51.10
2023-06-04T08:03:53.469Z,50.20
2023-06-04T08:06:21.928Z,49.50
2023-06-04T08:08:51.639Z,48.90
2023-06-04T08:11:20.204Z,49.40
2023-06-04T08:13:48.453Z,49.50
2023-06-04T08:16:16.857Z,48.70
2023-06-04T08:18:45.181Z,47.10
2023-06-04T08:21:14.000Z,48.20
2023-06-04T08:23:42.456Z,47.90
2023-06-04T08:26:12.333Z,48.10
2023-06-04T08:28:41.019Z,46.90
2023-06-04T08:31:09.707Z,45.30
2023-06-04T08:33:38.042Z,46.20
2023-06-04T08:36:07.130Z,45.50
2023-06-04T08:38:35.572Z,46.80
2023-06-04T08:41:15.690Z,45.00
2023-06-04T08:43:45.959Z,45.70
2023-06-04T08:46:15.932Z,45.30
2023-06-04T08:48:44.415Z,45.80
2023-06-04T08:51:15.120Z,44.00
2023-06-04T08:53:48.762Z,43.60
2023-06-04T08:56:18.962Z,44.20
2023-06-04T08:58:49.888Z,42.90
2023-06-04T09:01:20.162Z,42.10
2023-06-04T09:03:49.573Z,42.90
2023-06-04T09:06:18.057Z,42.20
2023-06-04T09:08:57.767Z,40.50
2023-06-04T09:11:36.274Z,41.70
2023-06-04T09:14:09.806Z,40.60
2023-06-04T09:16:46.474Z,40.90
2023-06-04T09:19:15.036Z,39.80
2023-06-04T09:21:54.060Z,40.80
2023-06-04T09:24:24.197Z,39.50
2023-06-04T09:26:54.202Z,40.30
2023-06-04T09:29:22.706Z,39.30
2023-06-04T09:32:00.851Z,38.90
2023-06-04T09:34:32.729Z,39.10
2023-06-04T09:37:01.373Z,38.60
2023-06-04T09:39:29.707Z,38.30
2023-06-04T09:42:04.037Z,37.90
2023-06-04T09:44:32.780Z,37.70
2023-06-04T09:47:01.783Z,37.30
2023-06-04T09:49:30.354Z,36.60
2023-06-04T09:51:58.687Z,38.00
2023-06-04T09:54:38.728Z,37.10
2023-06-04T09:57:17.552Z,36.00
2023-06-04T09:59:47.700Z,37.00
2023-06-04T10:02:20.192Z,36.20
2023-06-04T10:04:58.448Z,35.70
2023-06-04T10:07:27.723Z,36.40
2023-06-04T10:09:57.280Z,34.90
2023-06-04T10:12:33.560Z,35.40
2023-06-04T10:15:08.686Z,36.70
2023-06-04T10:17:38.299Z,35.20
2023-06-04T10:20:09.788Z,35.70
2023-06-04T10:22:38.300Z,34.80
2023-06-04T10:25:08.094Z,36.10
2023-06-04T10:27:37.857Z,34.10
2023-06-04T10:30:08.131Z,35.20
2023-06-04T10:32:37.196Z,35.60
2023-06-04T10:35:09.052Z,35.50
2023-06-04T10:37:37.593Z,35.90
2023-06-04T10:40:07.767Z,35.50
2023-06-04T10:42:45.067Z,35.60
2023-06-04T10:45:13.860Z,34.70
2023-06-04T10:47:42.888Z,35.10
2023-06-04T10:50:14.082Z,32.10
2023-06-04T10:52:54.688Z,33.10
2023-06-04T10:55:23.325Z,33.90
2023-06-04T10:57:57.153Z,33.30
2023-06-04T11:00:37.695Z,34.10
2023-06-04T11:03:09.701Z,32.20
2023-06-04T11:05:39.060Z,32.80
2023-06-04T11:08:08.363Z,33.40
2023-06-04T11:10:38.939Z,33.10
2023-06-04T11:13:08.814Z,33.10
2023-06-04T11:15:42.789Z,31.20
2023-06-04T11:18:17.519Z,32.50
2023-06-04T11:20:46.990Z,32.40
2023-06-04T11:23:16.904Z,32.20
2023-06-04T11:25:46.766Z,30.70
2023-06-04T11:28:19.965Z,32.60
2023-06-04T11:30:59.720Z,32.20
2023-06-04T11:33:28.400Z,33.30
2023-06-04T11:35:56.761Z,32.10
2023-06-04T11:38:25.081Z,31.80
2023-06-04T11:41:01.409Z,32.00
2023-06-04T11:43:31.559Z,32.60
2023-06-04T11:46:00.316Z,33.00
2023-06-04T11:48:29.072Z,33.20
2023-06-04T11:50:57.549Z,30.90
2023-06-04T11:53:27.200Z,32.20
2023-06-04T11:55:55.839Z,32.30
2023-06-04T11:58:24.221Z,31.60
2023-06-04T12:00:54.008Z,31.40
2023-06-04T12:03:35.705Z,31.80
2023-06-04T12:06:13.843Z,31.90
2023-06-04T12:08:54.245Z,31.50
2023-06-04T12:11:30.264Z,31.70
2023-06-04T12:14:00.769Z,32.60
2023-06-04T12:16:30.733Z,32.10
2023-06-04T12:19:11.292Z,30.70
2023-06-04T12:21:40.662Z,30.70
2023-06-04T12:24:11.179Z,32.10
2023-06-04T12:26:41.829Z,31.60
2023-06-04T12:29:12.413Z,28.30
2023-06-04T12:31:44.315Z,29.40
2023-06-04T12:34:13.674Z,29.40
2023-06-04T12:36:42.032Z,30.00
2023-06-04T12:39:10.313Z,31.70
2023-06-04T12:41:39.061Z,30.80
2023-06-04T12:44:07.492Z,29.00
2023-06-04T12:46:35.957Z,30.90
2023-06-04T12:49:06.632Z,28.80
2023-06-04T12:51:34.853Z,29.70
2023-06-04T12:54:03.100Z,30.80
2023-06-04T12:56:31.475Z,29.70
2023-06-04T12:59:00.010Z,29.00
2023-06-04T13:01:28.755Z,29.80
2023-06-04T13:03:57.745Z,29.70
2023-06-04T13:06:27.657Z,28.80
2023-06-04T13:08:56.076Z,28.90
2023-06-04T13:11:24.406Z,29.70
2023-06-04T13:13:52.739Z,29.80
2023-06-04T13:16:21.158Z,29.50
2023-06-04T13:18:49.607Z,28.70
2023-06-04T13:21:18.012Z,30.20
2023-06-04T13:23:50.304Z,29.00
2023-06-04T13:26:19.941Z,30.10
2023-06-04T13:28:49.133Z,29.40
2023-06-04T13:31:17.711Z,29.60
2023-06-04T13:33:46.425Z,30.20
2023-06-04T13:36:14.692Z,30.40
2023-06-04T13:38:44.434Z,29.00
2023-06-04T13:41:15.616Z,30.10
2023-06-04T13:43:43.931Z,28.80
2023-06-04T13:46:12.318Z,29.10
2023-06-04T13:48:40.624Z,30.10
2023-06-04T13:51:09.166Z,29.40
2023-06-04T13:53:37.736Z,29.10
2023-06-04T13:56:06.332Z,29.80
2023-06-04T13:58:36.056Z,29.70
2023-06-04T14:01:04.414Z,29.90
2023-06-04T14:03:32.811Z,28.80
2023-06-04T14:06:02.427Z,30.70
2023-06-04T14:08:30.727Z,29.60
2023-06-04T14:10:59.025Z,30.20
2023-06-04T14:13:27.295Z,30.30
2023-06-04T14:15:57.526Z,29.60
2023-06-04T14:18:25.830Z,29.20
2023-06-04T14:20:54.473Z,29.60
2023-06-04T14:23:22.789Z,30.10
2023-06-04T14:25:51.180Z,30.70
2023-06-04T14:28:21.837Z,30.90
2023-06-04T14:30:50.109Z,30.70
2023-06-04T14:33:19.924Z,29.60
2023-06-04T14:35:48.547Z,30.70
2023-06-04T14:38:17.296Z,30.70
2023-06-04T14:40:46.513Z,30.80
2023-06-04T14:43:15.195Z,31.00
2023-06-04T14:45:43.536Z,31.20
2023-06-04T14:48:16.210Z,31.10
2023-06-04T14:50:47.908Z,30.70
2023-06-04T14:53:16.210Z,31.60
2023-06-04T14:55:44.684Z,31.00
2023-06-04T14:58:13.495Z,30.10
2023-06-04T15:00:41.980Z,30.80
2023-06-04T15:03:10.722Z,30.80
2023-06-04T15:05:39.125Z,31.20
2023-06-04T15:08:09.630Z,32.30
2023-06-04T15:10:38.020Z,31.40
2023-06-04T15:13:06.459Z,30.00
2023-06-04T15:15:34.767Z,31.40
2023-06-04T15:18:03.309Z,31.30
2023-06-04T15:20:31.679Z,31.40
2023-06-04T15:23:00.195Z,31.80
2023-06-04T15:25:30.778Z,32.00
2023-06-04T15:27:59.654Z,31.00
2023-06-04T15:30:27.932Z,31.60
2023-06-04T15:32:56.227Z,31.90
2023-06-04T15:35:24.800Z,32.30
2023-06-04T15:37:53.067Z,32.30
2023-06-04T15:40:21.986Z,32.50
2023-06-04T15:42:51.952Z,32.20
2023-06-04T15:45:22.381Z,32.10
2023-06-04T15:47:50.740Z,32.00
2023-06-04T15:50:19.146Z,32.40
2023-06-04T15:52:47.944Z,32.70
2023-06-04T15:55:17.571Z,33.40
2023-06-04T15:57:45.982Z,33.10
2023-06-04T16:00:17.748Z,32.60
2023-06-04T16:02:46.191Z,32.30
2023-06-04T16:05:14.584Z,32.00
2023-06-04T16:07:42.880Z,32.20
2023-06-04T16:10:11.940Z,33.30
2023-06-04T16:12:40.686Z,33.40
2023-06-04T16:15:10.377Z,33.80
2023-06-04T16:17:43.549Z,33.80
2023-06-04T16:22:41.425Z,33.90
2023-06-04T16:25:10.886Z,33.50
2023-06-04T16:27:39.290Z,32.60
2023-06-04T16:30:09.588Z,33.00
2023-06-04T16:32:39.567Z,33.20
2023-06-04T16:35:10.451Z,32.90
2023-06-04T16:37:39.070Z,33.20
2023-06-04T16:40:08.913Z,33.20
2023-06-04T16:42:38.103Z,33.20
2023-06-04T16:45:07.610Z,33.40
2023-06-04T16:47:37.658Z,32.80
2023-06-04T16:50:09.030Z,32.60
2023-06-04T16:52:38.024Z,33.60
2023-06-04T16:55:09.547Z,34.20
2023-06-04T16:57:38.957Z,34.40
2023-06-04T17:00:24.956Z,34.80
2023-06-04T17:02:56.206Z,34.40
2023-06-04T17:05:29.027Z,34.00
2023-06-04T17:07:59.528Z,34.00
2023-06-04T17:10:33.658Z,34.00
2023-06-04T17:13:02.730Z,34.40
2023-06-04T17:15:31.309Z,34.60
2023-06-04T17:18:02.423Z,34.10
2023-06-04T17:20:33.125Z,34.40
2023-06-04T17:23:02.180Z,34.80
2023-06-04T17:25:33.260Z,34.80
2023-06-04T17:28:01.996Z,34.20
2023-06-04T17:30:30.480Z,34.40
2023-06-04T17:32:59.021Z,34.70
2023-06-04T17:35:27.407Z,34.90
2023-06-04T17:37:57.339Z,35.00
2023-06-04T17:40:27.598Z,35.10
2023-06-04T17:42:56.220Z,35.00
2023-06-04T17:45:24.546Z,35.10
2023-06-04T17:47:52.928Z,34.80
2023-06-04T17:50:21.330Z,35.10
2023-06-04T17:52:49.648Z,34.60
2023-06-04T17:55:19.772Z,35.00
2023-06-04T17:57:48.098Z,34.90
2023-06-04T18:00:17.978Z,35.50
2023-06-04T18:02:46.303Z,35.60
2023-06-04T18:05:14.770Z,35.40
2023-06-04T18:07:43.195Z,35.70
2023-06-04T18:10:12.286Z,35.30
2023-06-04T18:12:42.196Z,35.40
2023-06-04T18:15:11.969Z,35.80
2023-06-04T18:17:40.362Z,35.70
2023-06-04T18:20:10.542Z,36.00
2023-06-04T18:22:39.054Z,36.20
2023-06-04T18:25:09.415Z,36.30
2023-06-04T18:27:38.110Z,36.20
2023-06-04T18:30:09.928Z,36.30
2023-06-04T18:32:38.492Z,36.60
2023-06-04T18:35:07.580Z,36.90
2023-06-04T18:37:35.982Z,37.30
2023-06-04T18:40:04.651Z,37.80
2023-06-04T18:42:32.915Z,38.00
2023-06-04T18:45:04.522Z,38.10
2023-06-04T18:47:34.310Z,38.30
2023-06-04T18:50:02.695Z,38.40
2023-06-04T18:52:34.038Z,38.30
2023-06-04T18:55:02.899Z,38.40
2023-06-04T18:57:31.835Z,38.60
2023-06-04T19:00:00.229Z,38.50
2023-06-04T19:02:28.559Z,38.40
2023-06-04T19:04:58.253Z,38.80
2023-06-04T19:07:26.559Z,38.90
2023-06-04T19:09:54.867Z,39.10
2023-06-04T19:12:23.211Z,39.30
2023-06-04T19:14:51.566Z,39.40
2023-06-04T19:17:20.265Z,39.80
2023-06-04T19:19:49.445Z,39.60
2023-06-04T19:22:19.148Z,39.70
2023-06-04T19:24:47.469Z,40.00
2023-06-04T19:27:17.668Z,40.50
2023-06-04T19:29:46.838Z,40.70
2023-06-04T19:32:15.451Z,41.10
2023-06-04T19:34:43.867Z,41.30
2023-06-04T19:37:12.365Z,41.60
2023-06-04T19:39:42.112Z,41.80
2023-06-04T19:42:10.502Z,42.10
2023-06-04T19:44:39.050Z,42.50
2023-06-04T19:47:07.963Z,42.50
2023-06-04T19:49:36.385Z,42.60
2023-06-04T19:52:06.186Z,43.60
2023-06-04T19:54:34.490Z,44.20
2023-06-04T19:57:04.327Z,43.40
2023-06-04T19:59:32.724Z,43.50
2023-06-04T20:02:01.085Z,44.20
2023-06-04T20:04:29.464Z,44.80
2023-06-04T20:06:58.585Z,45.10
2023-06-04T20:09:27.269Z,45.30
2023-06-04T20:11:55.674Z,46.30
2023-06-04T20:14:25.404Z,46.50
2023-06-04T20:16:53.956Z,46.00
2023-06-04T20:19:23.299Z,47.20
2023-06-04T20:21:51.768Z,47.60
2023-06-04T20:24:21.199Z,47.60
2023-06-04T20:26:49.590Z,48.10
2023-06-04T20:29:17.912Z,49.00
2023-06-04T20:31:47.851Z,48.50
2023-06-04T20:34:16.326Z,49.50
2023-06-04T20:36:44.623Z,49.20
2023-06-04T20:39:12.889Z,49.40
2023-06-04T20:41:41.703Z,49.10
2023-06-04T20:44:09.999Z,48.70
2023-06-04T20:46:38.424Z,48.30
2023-06-04T20:49:08.239Z,48.10
2023-06-04T20:51:36.574Z,48.60
2023-06-04T20:54:06.430Z,48.90
2023-06-04T20:56:34.847Z,49.00
2023-06-04T20:59:03.165Z,49.60
2023-06-04T21:01:31.577Z,50.30
2023-06-04T21:04:01.570Z,51.00
2023-06-04T21:06:31.477Z,51.00
2023-06-04T21:08:59.799Z,51.50
2023-06-04T21:11:28.817Z,51.70
2023-06-04T21:13:58.012Z,52.50
2023-06-04T21:16:26.365Z,53.10
2023-06-04T21:18:55.071Z,53.30
2023-06-04T21:21:23.377Z,53.50
2023-06-04T21:23:53.182Z,53.50
2023-06-04T21:26:21.880Z,54.40
2023-06-04T21:28:50.432Z,55.00
2023-06-04T21:31:18.936Z,55.30
2023-06-04T21:33:47.388Z,55.60
2023-06-04T21:36:16.544Z,56.20
2023-06-04T21:38:45.356Z,56.10
2023-06-04T21:41:14.988Z,56.40
2023-06-04T21:43:43.293Z,56.90
2023-06-04T21:46:12.045Z,57.10
2023-06-04T21:48:40.355Z,57.40
2023-06-04T21:51:08.883Z,57.80
2023-06-04T21:53:37.377Z,58.00
2023-06-04T21:56:06.050Z,58.50
2023-06-04T21:58:35.925Z,58.70
2023-06-04T22:01:04.232Z,58.80
2023-06-04T22:03:32.612Z,59.10
2023-06-04T22:06:01.038Z,59.30
2023-06-04T22:08:29.281Z,59.20
2023-06-04T22:10:57.702Z,59.50
2023-06-04T22:13:26.032Z,59.70
2023-06-04T22:15:55.695Z,59.50
2023-06-04T22:18:23.997Z,60.10
2023-06-04T22:20:52.297Z,60.40
2023-06-04T22:23:20.590Z,60.30
2023-06-04T22:25:49.297Z,60.90
2023-06-04T22:28:17.563Z,60.80
2023-06-04T22:30:46.187Z,61.40
2023-06-04T22:33:15.930Z,61.10
2023-06-04T22:35:44.255Z,61.30
2023-06-04T22:38:12.587Z,61.30
2023-06-04T22:40:41.090Z,61.80
2023-06-04T22:43:09.347Z,61.60
2023-06-04T22:45:37.645Z,61.60
2023-06-04T22:48:06.652Z,62.00
2023-06-04T22:50:38.033Z,62.20
2023-06-04T22:53:09.134Z,62.10
2023-06-04T22:55:37.482Z,62.40
2023-06-04T22:58:05.926Z,62.70
2023-06-04T23:00:34.240Z,62.60
2023-06-04T23:03:02.629Z,62.90
2023-06-04T23:05:32.085Z,63.00
2023-06-04T23:08:01.750Z,63.00
2023-06-04T23:10:30.025Z,63.50
2023-06-04T23:12:58.294Z,63.70
2023-06-04T23:15:26.866Z,63.70
2023-06-04T23:17:55.210Z,63.50
2023-06-04T23:20:23.600Z,63.80
2023-06-04T23:22:51.812Z,63.90
2023-06-04T23:25:21.551Z,64.10
2023-06-04T23:27:50.004Z,64.20
2023-06-04T23:30:19.828Z,64.20
2023-06-04T23:32:48.226Z,64.60
2023-06-04T23:35:16.665Z,64.20
2023-06-04T23:37:45.027Z,65.10
2023-06-04T23:40:13.792Z,65.50
2023-06-04T23:42:43.436Z,64.90
2023-06-04T23:45:13.128Z,65.50
2023-06-04T23:47:41.449Z,65.40
2023-06-04T23:50:10.706Z,65.60
2023-06-04T23:52:40.143Z,65.80
2023-06-04T23:55:09.340Z,65.90
2023-06-04T23:57:37.587Z,66.20
